Waco, TX (76711)

06:48 CDT le 01 août 2015 (GMT -0500)
quiquem | | Change Station
CLOSE
Current Station
Stations météorologiques personnelles
Location: Waco, TX
Altitude: 568 ft
Stations météo à proximité

Alt. 568 ft 31.48 °N, 97.17 °W | Updated 29 seconds ago

Ciel dégagé
Ciel dégagé
71.6 ° F
Paraît 72 ° F
N
0.0
Vent Variable Vent de ESE
Gusts 0.0 mph

Aujourd'hui
Haut(e) -- | Bas -- ° F
--% Risque de précip.
Hier
Haut(e) -- | Bas -- ° F
Precip. -- pouce
6:44 AM 8:24 PM
Pleine lune, 98% visible
Pression 29.99 pouce
Visibilité 10.0 Miles terrestres
Nuages Ciel dégagé
indice de chaleur 72 ° F
Point de rosée 65 ° F
Humidité 79%
Précipitations 0.00 pouce
Profondeur de la couche neigeuse Non disponible.
UV 0.0 sur 12
Pollen 6.10 sur 12
Qualité de l'air Non disponible.
Flu Activity Non disponible.
METAR KACT 011051Z 36005KT 10SM CLR 22/18 A3001 RMK AO2 SLP153 T02170183

More Conditions Fewer Conditions

Pression 29.99 pouce
Visibilité 10.0 Miles terrestres
Nuages Ciel dégagé
indice de chaleur 72 ° F
Point de rosée 65 ° F
Humidité 79%
Précipitations 0.00 pouce
Profondeur de la couche neigeuse Non disponible.
UV 0.0 sur 12
Pollen 6.10 sur 12
Qualité de l'air Non disponible.
Flu Activity Non disponible.
METAR KACT 011051Z 36005KT 10SM CLR 22/18 A3001 RMK AO2 SLP153 T02170183

More Conditions Fewer Conditions

10-Day Weather Forecast

×

Almanac

Astronomie

Aug. 01, 2015 Lever Coucher
Temps réel
Crépuscule civil
Crépuscule nautique
Crépuscule astronomique
Lune
Durée de lumière visible
Longueur du jour
Tomorrow will be .
, % of the Moon is Illuminated

Extrêmes aujourd'hui

State Highs State Lows

Community

WunderPhotos

Upload Photos

1,842,918 Photos téléchargées !

WunderBlogs® & News

Nearby

Qualité de l'air

  Qualité de l'air Indice de la qualité de l'air Polluant
Not available.

Épaisseur de neige

Station Depth Altitude

Activité sismique

Ville Distance Mag. Time & Date
Minimum magnitude displayed is 2.5.

Températures des eaux côtières

Lieu Température

Stations

Stations météo à proximité

Emplacement de la station Température Refroidissement éolien Point de rosée Humidité Vent Precip. Alt. Mise à jour Type